createdAt,value
2018-06-12T00:00:09.884Z,931.23
2018-06-12T00:01:09.901Z,931.23
2018-06-12T00:02:09.997Z,931.24
2018-06-12T00:03:09.934Z,931.25
2018-06-12T00:04:09.948Z,931.26
2018-06-12T00:05:09.965Z,931.27
2018-06-12T00:06:09.987Z,931.30
2018-06-12T00:07:10.003Z,931.28
2018-06-12T00:08:10.121Z,931.31
2018-06-12T00:09:10.037Z,931.34
2018-06-12T00:10:10.032Z,931.37
2018-06-12T00:11:10.093Z,931.37
2018-06-12T00:12:10.065Z,931.36
2018-06-12T00:13:10.236Z,931.37
2018-06-12T00:14:10.107Z,931.36
2018-06-12T00:15:10.130Z,931.37
2018-06-12T00:16:10.151Z,931.35
2018-06-12T00:17:10.177Z,931.34
2018-06-12T00:18:10.287Z,931.33
2018-06-12T00:19:10.241Z,931.36
2018-06-12T00:20:10.207Z,931.40
2018-06-12T00:21:10.251Z,931.40
2018-06-12T00:22:10.257Z,931.40
2018-06-12T00:23:10.392Z,931.41
2018-06-12T00:24:10.320Z,931.41
2018-06-12T00:25:10.293Z,931.39
2018-06-12T00:26:10.310Z,931.34
2018-06-12T00:27:10.333Z,931.34
2018-06-12T00:28:10.488Z,931.36
2018-06-12T00:29:10.403Z,931.36
2018-06-12T00:30:10.387Z,931.38
2018-06-12T00:31:10.393Z,931.40
2018-06-12T00:32:10.444Z,931.40
2018-06-12T00:33:10.476Z,931.41
2018-06-12T00:34:10.445Z,931.41
2018-06-12T00:35:10.472Z,931.40
2018-06-12T00:36:10.445Z,931.40
2018-06-12T00:37:10.514Z,931.41
2018-06-12T00:38:10.537Z,931.40
2018-06-12T00:39:10.507Z,931.41
2018-06-12T00:40:10.561Z,931.43
2018-06-12T00:41:10.554Z,931.39
2018-06-12T00:42:10.760Z,931.37
2018-06-12T00:43:10.577Z,931.41
2018-06-12T00:44:10.599Z,931.36
2018-06-12T00:45:10.656Z,931.35
2018-06-12T00:46:10.647Z,931.38
2018-06-12T00:47:10.779Z,931.38
2018-06-12T00:48:10.693Z,931.37
2018-06-12T00:50:10.743Z,931.38
2018-06-12T00:51:10.732Z,931.37
2018-06-12T00:52:10.782Z,931.40
2018-06-12T00:53:10.777Z,931.39
2018-06-12T00:54:10.806Z,931.40
2018-06-12T00:55:10.758Z,931.42
2018-06-12T00:56:10.764Z,931.42
2018-06-12T00:57:10.825Z,931.42
2018-06-12T00:58:10.810Z,931.40
2018-06-12T00:59:10.930Z,931.43
2018-06-12T01:00:10.873Z,931.44
2018-06-12T01:01:10.854Z,931.49
2018-06-12T01:02:10.936Z,931.50
2018-06-12T01:03:10.909Z,931.51
2018-06-12T01:04:10.905Z,931.52
2018-06-12T01:05:11.071Z,931.52
2018-06-12T01:07:10.949Z,931.50
2018-06-12T01:08:10.978Z,931.52
2018-06-12T01:09:11.029Z,931.51
2018-06-12T01:10:11.108Z,931.50
2018-06-12T01:11:11.067Z,931.51
2018-06-12T01:12:11.072Z,931.52
2018-06-12T01:13:11.052Z,931.53
2018-06-12T01:14:11.097Z,931.56
2018-06-12T01:15:11.130Z,931.55
2018-06-12T01:16:11.199Z,931.59
2018-06-12T01:17:11.157Z,931.58
2018-06-12T01:18:11.117Z,931.58
2018-06-12T01:19:11.176Z,931.54
2018-06-12T01:20:11.156Z,931.54
2018-06-12T01:21:11.332Z,931.50
2018-06-12T01:22:11.234Z,931.50
2018-06-12T01:23:11.263Z,931.53
2018-06-12T01:24:11.264Z,931.53
2018-06-12T01:25:11.258Z,931.53
2018-06-12T01:26:11.455Z,931.56
2018-06-12T01:27:11.324Z,931.58
2018-06-12T01:28:11.288Z,931.61
2018-06-12T01:30:11.366Z,931.63
2018-06-12T01:31:11.419Z,931.64
2018-06-12T01:32:11.399Z,931.64
2018-06-12T01:33:11.374Z,931.65
2018-06-12T01:34:11.405Z,931.67
2018-06-12T01:35:11.456Z,931.65
2018-06-12T01:36:11.509Z,931.64
2018-06-12T01:37:11.444Z,931.62
2018-06-12T01:38:11.480Z,931.63
2018-06-12T01:39:11.485Z,931.66
2018-06-12T01:40:11.463Z,931.61
2018-06-12T01:41:11.600Z,931.68
2018-06-12T01:42:11.527Z,931.69
2018-06-12T01:43:11.515Z,931.67
2018-06-12T01:44:11.594Z,931.64
2018-06-12T01:45:11.558Z,931.68
2018-06-12T01:46:11.710Z,931.63
2018-06-12T01:47:11.631Z,931.60
2018-06-12T01:48:11.653Z,931.61
2018-06-12T01:49:11.626Z,931.60
2018-06-12T01:51:11.790Z,931.60
2018-06-12T01:52:11.721Z,931.64
2018-06-12T01:53:11.738Z,931.66
2018-06-12T01:54:11.694Z,931.66
2018-06-12T01:55:11.762Z,931.63
2018-06-12T01:56:11.819Z,931.62
2018-06-12T01:57:11.750Z,931.59
2018-06-12T01:58:11.796Z,931.55
2018-06-12T01:59:11.825Z,931.52
2018-06-12T02:00:11.832Z,931.48
2018-06-12T02:01:11.954Z,931.48
2018-06-12T02:02:11.810Z,931.42
2018-06-12T02:03:11.832Z,931.39
2018-06-12T02:04:11.872Z,931.39
2018-06-12T02:05:11.860Z,931.38
2018-06-12T02:06:11.971Z,931.35
2018-06-12T02:07:11.922Z,931.35
2018-06-12T02:08:11.930Z,931.36
2018-06-12T02:09:11.924Z,931.32
2018-06-12T02:10:11.946Z,931.33
2018-06-12T02:11:12.056Z,931.37
2018-06-12T02:12:11.970Z,931.37
2018-06-12T02:13:11.993Z,931.41
2018-06-12T02:14:12.008Z,931.35
2018-06-12T02:15:12.031Z,931.34
2018-06-12T02:16:12.042Z,931.33
2018-06-12T02:17:12.160Z,931.32
2018-06-12T02:18:12.063Z,931.37
2018-06-12T02:19:12.104Z,931.34
2018-06-12T02:20:12.080Z,931.33
2018-06-12T02:21:12.141Z,931.38
2018-06-12T02:22:12.273Z,931.37
2018-06-12T02:23:12.177Z,931.40
2018-06-12T02:24:12.192Z,931.41
2018-06-12T02:25:12.188Z,931.40
2018-06-12T02:26:12.178Z,931.42
2018-06-12T02:27:12.217Z,931.43
2018-06-12T02:28:12.318Z,931.41
2018-06-12T02:29:12.263Z,931.43
2018-06-12T02:30:12.247Z,931.43
2018-06-12T02:31:12.264Z,931.38
2018-06-12T02:32:12.290Z,931.40
2018-06-12T02:33:12.341Z,931.40
2018-06-12T02:34:12.308Z,931.40
2018-06-12T02:35:12.323Z,931.40
2018-06-12T02:36:12.347Z,931.40
2018-06-12T02:37:12.405Z,931.41
2018-06-12T02:38:12.505Z,931.42
2018-06-12T02:39:12.424Z,931.43
2018-06-12T02:40:12.400Z,931.44
2018-06-12T02:41:12.434Z,931.45
2018-06-12T02:42:12.432Z,931.45
2018-06-12T02:43:12.569Z,931.43
2018-06-12T02:44:12.488Z,931.45
2018-06-12T02:45:12.489Z,931.44
2018-06-12T02:46:12.520Z,931.44
2018-06-12T02:47:12.514Z,931.43
2018-06-12T02:48:12.626Z,931.39
2018-06-12T02:49:12.521Z,931.42
2018-06-12T02:50:12.586Z,931.40
2018-06-12T02:51:12.578Z,931.42
2018-06-12T02:52:12.570Z,931.42
2018-06-12T02:53:12.761Z,931.44
2018-06-12T02:54:12.616Z,931.44
2018-06-12T02:55:12.625Z,931.44
2018-06-12T02:56:12.668Z,931.42
2018-06-12T02:57:12.658Z,931.44
2018-06-12T02:58:12.830Z,931.41
2018-06-12T02:59:12.695Z,931.43
2018-06-12T03:00:12.755Z,931.38
2018-06-12T03:01:12.719Z,931.39
2018-06-12T03:02:12.749Z,931.34
2018-06-12T03:03:12.845Z,931.33
2018-06-12T03:04:12.758Z,931.33
2018-06-12T03:05:12.784Z,931.26
2018-06-12T03:06:12.838Z,931.26
2018-06-12T03:07:12.803Z,931.25
2018-06-12T03:08:12.986Z,931.18
2018-06-12T03:09:12.882Z,931.22
2018-06-12T03:10:12.836Z,931.22
2018-06-12T03:11:12.883Z,931.22
2018-06-12T03:12:12.926Z,931.21
2018-06-12T03:13:13.007Z,931.22
2018-06-12T03:14:12.908Z,931.21
2018-06-12T03:15:12.936Z,931.20
2018-06-12T03:16:12.948Z,931.21
2018-06-12T03:17:12.955Z,931.21
2018-06-12T03:18:12.953Z,931.17
2018-06-12T03:19:13.089Z,931.16
2018-06-12T03:20:12.986Z,931.14
2018-06-12T03:21:13.017Z,931.13
2018-06-12T03:22:13.027Z,931.11
2018-06-12T03:23:13.090Z,931.10
2018-06-12T03:24:13.163Z,931.10
2018-06-12T03:25:13.078Z,931.05
2018-06-12T03:26:13.075Z,931.07
2018-06-12T03:27:13.109Z,931.06
2018-06-12T03:28:13.143Z,931.02
2018-06-12T03:29:13.148Z,930.99
2018-06-12T03:30:13.303Z,930.99
2018-06-12T03:31:13.182Z,930.97
2018-06-12T03:32:13.188Z,930.96
2018-06-12T03:33:13.225Z,930.92
2018-06-12T03:34:13.213Z,930.92
2018-06-12T03:35:13.314Z,930.91
2018-06-12T03:36:13.248Z,930.89
2018-06-12T03:37:13.262Z,930.87
2018-06-12T03:38:13.309Z,930.88
2018-06-12T03:39:13.281Z,930.94
2018-06-12T03:40:13.430Z,930.91
2018-06-12T03:41:13.300Z,930.88
2018-06-12T03:42:13.319Z,930.93
2018-06-12T03:43:13.338Z,930.85
2018-06-12T03:44:13.342Z,930.88
2018-06-12T03:45:13.457Z,930.90
2018-06-12T03:46:13.379Z,930.89
2018-06-12T03:47:13.386Z,930.93
2018-06-12T03:48:13.405Z,930.95
2018-06-12T03:49:13.434Z,930.95
2018-06-12T03:50:13.549Z,930.98
2018-06-12T03:51:13.444Z,930.98
2018-06-12T03:52:13.474Z,930.97
2018-06-12T03:53:13.476Z,930.94
2018-06-12T03:54:13.505Z,930.97
2018-06-12T03:55:13.619Z,930.95
2018-06-12T03:56:13.530Z,930.95
2018-06-12T03:57:13.535Z,930.94
2018-06-12T03:58:13.559Z,930.94
2018-06-12T03:59:13.574Z,930.94
2018-06-12T04:00:13.685Z,930.93
2018-06-12T04:01:13.602Z,930.96
2018-06-12T04:02:13.610Z,930.96
2018-06-12T04:03:13.643Z,930.95
2018-06-12T04:04:13.648Z,930.94
2018-06-12T04:05:13.820Z,930.96
2018-06-12T04:06:13.662Z,930.95
2018-06-12T04:07:13.696Z,930.93
2018-06-12T04:08:13.696Z,930.96
2018-06-12T04:09:13.760Z,930.97
2018-06-12T04:10:13.874Z,930.99
2018-06-12T04:11:13.751Z,930.98
2018-06-12T04:12:13.752Z,930.97
2018-06-12T04:13:13.777Z,930.95
2018-06-12T04:14:13.799Z,930.97
2018-06-12T04:15:13.964Z,930.97
2018-06-12T04:16:13.811Z,930.97
2018-06-12T04:17:13.833Z,930.96
2018-06-12T04:18:13.854Z,930.94
2018-06-12T04:19:13.861Z,930.91
2018-06-12T04:20:13.888Z,930.89
2018-06-12T04:21:14.056Z,930.90
2018-06-12T04:22:13.906Z,930.87
2018-06-12T04:23:13.923Z,930.89
2018-06-12T04:24:13.950Z,930.92
2018-06-12T04:25:13.959Z,930.91
2018-06-12T04:26:14.109Z,930.93
2018-06-12T04:27:13.981Z,930.89
2018-06-12T04:28:14.013Z,930.89
2018-06-12T04:29:14.008Z,930.87
2018-06-12T04:30:14.033Z,930.87
2018-06-12T04:31:14.033Z,930.83
2018-06-12T04:32:14.114Z,930.85
2018-06-12T04:33:14.063Z,930.82
2018-06-12T04:34:14.095Z,930.78
2018-06-12T04:35:14.108Z,930.80
2018-06-12T04:36:14.111Z,930.80
2018-06-12T04:37:14.224Z,930.80
2018-06-12T04:38:14.134Z,930.77
2018-06-12T04:39:14.174Z,930.72
2018-06-12T04:40:14.164Z,930.78
2018-06-12T04:41:14.183Z,930.77
2018-06-12T04:42:14.213Z,930.73
2018-06-12T04:43:14.404Z,930.76
2018-06-12T04:44:14.243Z,930.74
2018-06-12T04:45:14.252Z,930.73
2018-06-12T04:46:14.276Z,930.72
2018-06-12T04:47:14.293Z,930.70
2018-06-12T04:48:14.444Z,930.70
2018-06-12T04:49:14.333Z,930.71
2018-06-12T04:50:14.329Z,930.72
2018-06-12T04:51:14.351Z,930.71
2018-06-12T04:52:14.353Z,930.74
2018-06-12T04:53:14.530Z,930.77
2018-06-12T04:54:14.378Z,930.75
2018-06-12T04:55:14.405Z,930.74
2018-06-12T04:56:14.401Z,930.74
2018-06-12T04:57:14.429Z,930.69
2018-06-12T04:58:14.549Z,930.75
2018-06-12T04:59:14.448Z,930.71
2018-06-12T05:00:14.476Z,930.73
2018-06-12T05:01:14.487Z,930.72
2018-06-12T05:02:14.496Z,930.69
2018-06-12T05:03:14.633Z,930.71
2018-06-12T05:04:14.540Z,930.68
2018-06-12T05:05:14.543Z,930.64
2018-06-12T05:06:14.571Z,930.65
2018-06-12T05:07:14.585Z,930.59
2018-06-12T05:08:14.700Z,930.60
2018-06-12T05:09:14.607Z,930.58
2018-06-12T05:10:14.619Z,930.57
2018-06-12T05:11:14.640Z,930.56
2018-06-12T05:12:14.638Z,930.52
2018-06-12T05:13:14.701Z,930.51
2018-06-12T05:14:14.667Z,930.45
2018-06-12T05:15:14.688Z,930.45
2018-06-12T05:16:14.797Z,930.48
2018-06-12T05:17:14.726Z,930.45
2018-06-12T05:18:14.743Z,930.49
2018-06-12T05:19:14.736Z,930.43
2018-06-12T05:20:14.770Z,930.42
2018-06-12T05:21:14.877Z,930.46
2018-06-12T05:22:14.800Z,930.45
2018-06-12T05:23:14.819Z,930.44
2018-06-12T05:24:14.829Z,930.44
2018-06-12T05:25:14.842Z,930.39
2018-06-12T05:26:14.838Z,930.41
2018-06-12T05:27:14.984Z,930.39
2018-06-12T05:28:14.890Z,930.34
2018-06-12T05:29:14.905Z,930.36
2018-06-12T05:30:14.899Z,930.35
2018-06-12T05:31:14.935Z,930.32
2018-06-12T05:32:15.042Z,930.33
2018-06-12T05:33:14.953Z,930.32
2018-06-12T05:34:14.955Z,930.30
2018-06-12T05:35:14.973Z,930.26
2018-06-12T05:36:14.985Z,930.28
2018-06-12T05:37:15.021Z,930.25
2018-06-12T05:38:15.132Z,930.24
2018-06-12T05:39:15.030Z,930.23
2018-06-12T05:40:15.064Z,930.24
2018-06-12T05:41:15.056Z,930.27
2018-06-12T05:42:15.095Z,930.26
2018-06-12T05:43:15.152Z,930.24
2018-06-12T05:44:15.121Z,930.23
2018-06-12T05:45:15.135Z,930.26
2018-06-12T05:46:15.197Z,930.27
2018-06-12T05:47:15.145Z,930.23
2018-06-12T05:48:15.156Z,930.23
2018-06-12T05:49:15.175Z,930.20
2018-06-12T05:50:15.211Z,930.23
2018-06-12T05:51:15.313Z,930.21
2018-06-12T05:52:15.236Z,930.22
2018-06-12T05:53:15.245Z,930.24
2018-06-12T05:54:15.269Z,930.23
2018-06-12T05:55:15.281Z,930.26
2018-06-12T05:56:15.389Z,930.23
2018-06-12T05:57:15.296Z,930.24
2018-06-12T05:58:15.305Z,930.26
2018-06-12T05:59:15.318Z,930.28
2018-06-12T06:00:15.329Z,930.32
2018-06-12T06:01:15.431Z,930.31
2018-06-12T06:02:15.356Z,930.29
2018-06-12T06:03:15.476Z,930.25
2018-06-12T06:04:15.405Z,930.25
2018-06-12T06:05:15.404Z,930.20
2018-06-12T06:06:15.418Z,930.21
2018-06-12T06:07:15.450Z,930.20
2018-06-12T06:08:15.621Z,930.15
2018-06-12T06:09:15.476Z,930.18
2018-06-12T06:10:15.491Z,930.11
2018-06-12T06:11:15.510Z,930.11
2018-06-12T06:12:15.526Z,930.16
2018-06-12T06:13:15.619Z,930.16
2018-06-12T06:14:15.541Z,930.15
2018-06-12T06:15:15.558Z,930.16
2018-06-12T06:16:15.581Z,930.16
2018-06-12T06:17:15.608Z,930.15
2018-06-12T06:18:15.711Z,930.16
2018-06-12T06:19:15.621Z,930.17
2018-06-12T06:20:15.634Z,930.17
2018-06-12T06:21:15.645Z,930.14
2018-06-12T06:22:15.649Z,930.13
2018-06-12T06:23:15.711Z,930.18
2018-06-12T06:24:15.688Z,930.12
2018-06-12T06:25:15.806Z,930.08
2018-06-12T06:26:15.706Z,930.08
2018-06-12T06:27:15.731Z,930.06
2018-06-12T06:28:15.746Z,930.07
2018-06-12T06:29:15.745Z,930.11
2018-06-12T06:30:15.761Z,930.09
2018-06-12T06:31:15.819Z,930.08
2018-06-12T06:32:15.782Z,930.10
2018-06-12T06:33:15.973Z,930.10
2018-06-12T06:34:15.824Z,930.08
2018-06-12T06:35:15.827Z,930.09
2018-06-12T06:36:15.878Z,930.07
2018-06-12T06:37:15.867Z,930.11
2018-06-12T06:38:15.895Z,930.08
2018-06-12T06:39:16.045Z,930.09
2018-06-12T06:40:15.905Z,930.07
2018-06-12T06:41:15.912Z,930.05
2018-06-12T06:42:15.924Z,930.08
2018-06-12T06:43:15.954Z,930.09
2018-06-12T06:44:16.022Z,930.03
2018-06-12T06:45:15.968Z,930.05
2018-06-12T06:46:15.981Z,930.01
2018-06-12T06:47:16.018Z,930.04
2018-06-12T06:48:16.085Z,930.02
2018-06-12T06:49:16.042Z,929.95
2018-06-12T06:50:16.065Z,929.95
2018-06-12T06:51:16.058Z,929.91
2018-06-12T06:52:16.084Z,929.87
2018-06-12T06:53:16.242Z,929.82
2018-06-12T06:54:16.112Z,929.82
2018-06-12T06:55:16.135Z,929.86
2018-06-12T06:56:16.146Z,929.85
2018-06-12T06:57:16.140Z,929.84
2018-06-12T06:58:16.165Z,929.86
2018-06-12T06:59:16.328Z,929.84
2018-06-12T07:00:16.212Z,929.89
2018-06-12T07:01:16.205Z,929.89
2018-06-12T07:02:16.214Z,929.93
2018-06-12T07:03:16.243Z,929.90
2018-06-12T07:04:16.350Z,929.87
2018-06-12T07:05:16.277Z,929.87
2018-06-12T07:06:16.277Z,929.84
2018-06-12T07:07:16.299Z,929.87
2018-06-12T07:08:16.303Z,929.85
2018-06-12T07:09:16.426Z,929.87
2018-06-12T07:10:16.337Z,929.86
2018-06-12T07:11:16.339Z,929.91
2018-06-12T07:12:16.375Z,929.91
2018-06-12T07:13:16.368Z,929.89
2018-06-12T07:14:16.499Z,929.91
2018-06-12T07:15:16.399Z,929.93
2018-06-12T07:16:16.420Z,929.94
2018-06-12T07:17:16.448Z,929.92
2018-06-12T07:18:16.433Z,929.94
2018-06-12T07:19:16.552Z,929.95
2018-06-12T07:20:16.476Z,929.95
2018-06-12T07:21:16.496Z,929.93
2018-06-12T07:22:16.489Z,929.92
2018-06-12T07:23:16.535Z,929.94
2018-06-12T07:24:16.636Z,929.95
2018-06-12T07:25:16.536Z,929.93
2018-06-12T07:26:16.546Z,929.87
2018-06-12T07:27:16.584Z,929.94
2018-06-12T07:28:16.578Z,929.90
2018-06-12T07:29:16.705Z,929.91
2018-06-12T07:30:16.601Z,929.96
2018-06-12T07:31:16.640Z,929.94
2018-06-12T07:32:16.706Z,929.98
2018-06-12T07:33:16.663Z,929.92
2018-06-12T07:34:16.833Z,929.95
2018-06-12T07:35:16.670Z,929.89
2018-06-12T07:36:16.689Z,929.86
2018-06-12T07:37:16.715Z,929.87
2018-06-12T07:38:16.733Z,929.85
2018-06-12T07:39:16.905Z,929.89
2018-06-12T07:40:16.766Z,929.85
2018-06-12T07:41:16.780Z,929.84
2018-06-12T07:42:16.774Z,929.81
2018-06-12T07:43:16.796Z,929.80
2018-06-12T07:44:16.805Z,929.80
2018-06-12T07:45:16.931Z,929.82
2018-06-12T07:46:16.836Z,929.87
2018-06-12T07:47:16.853Z,929.85
2018-06-12T07:48:16.869Z,929.86
2018-06-12T07:49:16.865Z,929.82
2018-06-12T07:50:16.900Z,929.83
2018-06-12T07:51:17.055Z,929.84
2018-06-12T07:52:16.929Z,929.79
2018-06-12T07:53:16.932Z,929.75
2018-06-12T07:54:16.955Z,929.78
2018-06-12T07:55:16.947Z,929.74
2018-06-12T07:56:17.137Z,929.74
2018-06-12T07:57:16.998Z,929.73
2018-06-12T07:58:16.993Z,929.68
2018-06-12T07:59:17.017Z,929.72
2018-06-12T08:00:17.037Z,929.72
2018-06-12T08:01:17.053Z,929.67
2018-06-12T08:02:17.195Z,929.71
2018-06-12T08:03:17.064Z,929.71
2018-06-12T08:04:17.077Z,929.70
2018-06-12T08:05:17.097Z,929.69
2018-06-12T08:06:17.103Z,929.64
2018-06-12T08:07:17.217Z,929.63
2018-06-12T08:08:17.124Z,929.60
2018-06-12T08:09:17.159Z,929.60
2018-06-12T08:10:17.151Z,929.59
2018-06-12T08:11:17.200Z,929.60
2018-06-12T08:12:17.208Z,929.63
2018-06-12T08:13:17.319Z,929.61
2018-06-12T08:14:17.214Z,929.60
2018-06-12T08:15:17.231Z,929.63
2018-06-12T08:16:17.236Z,929.60
2018-06-12T08:17:17.260Z,929.62
2018-06-12T08:18:17.431Z,929.66
2018-06-12T08:19:17.307Z,929.67
2018-06-12T08:20:17.304Z,929.70
2018-06-12T08:21:17.323Z,929.74
2018-06-12T08:22:17.342Z,929.75
2018-06-12T08:23:17.441Z,929.76
2018-06-12T08:24:17.369Z,929.78
2018-06-12T08:25:17.379Z,929.78
2018-06-12T08:26:17.385Z,929.76
2018-06-12T08:27:17.388Z,929.82
2018-06-12T08:28:17.519Z,929.82
2018-06-12T08:29:17.432Z,929.84
2018-06-12T08:30:17.559Z,929.85
2018-06-12T08:31:17.456Z,929.82
2018-06-12T08:32:17.466Z,929.79
2018-06-12T08:33:17.581Z,929.79
2018-06-12T08:34:17.504Z,929.77
2018-06-12T08:35:17.529Z,929.79
2018-06-12T08:36:17.509Z,929.82
2018-06-12T08:37:17.548Z,929.82
2018-06-12T08:38:17.651Z,929.85
2018-06-12T08:39:17.556Z,929.83
2018-06-12T08:40:17.594Z,929.84
2018-06-12T08:41:17.598Z,929.78
2018-06-12T08:42:17.620Z,929.82
2018-06-12T08:43:17.768Z,929.81
2018-06-12T08:44:17.637Z,929.80
2018-06-12T08:45:17.637Z,929.77
2018-06-12T08:46:17.670Z,929.78
2018-06-12T08:47:17.682Z,929.77
2018-06-12T08:48:17.790Z,929.72
2018-06-12T08:49:17.714Z,929.77
2018-06-12T08:50:17.725Z,929.71
2018-06-12T08:51:17.728Z,929.67
2018-06-12T08:52:17.752Z,929.66
2018-06-12T08:53:17.872Z,929.64
2018-06-12T08:54:17.761Z,929.62
2018-06-12T08:55:17.787Z,929.65
2018-06-12T08:56:17.800Z,929.65
2018-06-12T08:57:17.801Z,929.67
2018-06-12T08:58:17.844Z,929.70
2018-06-12T08:59:18.003Z,929.65
2018-06-12T09:00:17.839Z,929.68
2018-06-12T09:01:17.886Z,929.67
2018-06-12T09:02:17.896Z,929.67
2018-06-12T09:03:17.909Z,929.70
2018-06-12T09:04:18.063Z,929.69
2018-06-12T09:05:17.927Z,929.72
2018-06-12T09:06:17.933Z,929.74
2018-06-12T09:07:17.944Z,929.74
2018-06-12T09:08:17.957Z,929.74
2018-06-12T09:09:17.977Z,929.79
2018-06-12T09:10:18.139Z,929.86
2018-06-12T09:11:18.009Z,929.89
2018-06-12T09:12:18.023Z,929.86
2018-06-12T09:13:18.044Z,929.89
2018-06-12T09:14:18.057Z,929.90
2018-06-12T09:15:18.218Z,929.90
2018-06-12T09:16:18.069Z,929.89
2018-06-12T09:17:18.092Z,929.87
2018-06-12T09:18:18.229Z,929.83
2018-06-12T09:19:18.112Z,929.84
2018-06-12T09:20:18.281Z,929.83
2018-06-12T09:21:18.133Z,929.85
2018-06-12T09:22:18.183Z,929.90
2018-06-12T09:23:18.184Z,929.93
2018-06-12T09:24:18.201Z,929.96
2018-06-12T09:25:18.352Z,929.94
2018-06-12T09:26:18.216Z,929.93
2018-06-12T09:27:18.227Z,929.94
2018-06-12T09:28:18.247Z,929.99
2018-06-12T09:29:18.251Z,929.97
2018-06-12T09:30:18.412Z,930.01
2018-06-12T09:31:18.296Z,930.00
2018-06-12T09:32:18.295Z,930.03
2018-06-12T09:33:18.317Z,930.07
2018-06-12T09:34:18.316Z,930.12
2018-06-12T09:35:18.458Z,930.11
2018-06-12T09:36:18.350Z,930.19
2018-06-12T09:37:18.380Z,930.18
2018-06-12T09:38:18.507Z,930.19
2018-06-12T09:39:18.399Z,930.18
2018-06-12T09:40:18.626Z,930.18
2018-06-12T09:41:18.548Z,930.21
2018-06-12T09:42:18.433Z,930.21
2018-06-12T09:43:18.469Z,930.19
2018-06-12T09:44:18.475Z,930.24
2018-06-12T09:45:18.692Z,930.25
2018-06-12T09:46:18.492Z,930.28
2018-06-12T09:47:18.528Z,930.39
2018-06-12T09:48:18.530Z,930.34
2018-06-12T09:49:18.531Z,930.31
2018-06-12T09:50:18.656Z,930.36
2018-06-12T09:51:18.568Z,930.39
2018-06-12T09:52:18.706Z,930.38
2018-06-12T09:53:18.601Z,930.39
2018-06-12T09:54:18.599Z,930.40
2018-06-12T09:55:18.739Z,930.42
2018-06-12T09:56:18.633Z,930.40
2018-06-12T09:57:18.641Z,930.38
2018-06-12T09:58:18.657Z,930.36
2018-06-12T09:59:18.671Z,930.43
2018-06-12T10:00:18.803Z,930.42
2018-06-12T10:01:18.698Z,930.45
2018-06-12T10:02:18.722Z,930.46
2018-06-12T10:03:18.742Z,930.48
2018-06-12T10:04:18.758Z,930.53
2018-06-12T10:05:18.871Z,930.63
2018-06-12T10:06:18.782Z,930.65
2018-06-12T10:07:18.805Z,930.68
2018-06-12T10:08:18.826Z,930.68
2018-06-12T10:09:18.820Z,930.74
2018-06-12T10:10:18.955Z,930.73
2018-06-12T10:11:18.853Z,930.76
2018-06-12T10:12:18.868Z,930.77
2018-06-12T10:13:18.895Z,930.80
2018-06-12T10:14:18.896Z,930.78
2018-06-12T10:15:18.981Z,930.77
2018-06-12T10:16:18.913Z,930.82
2018-06-12T10:17:18.932Z,930.81
2018-06-12T10:18:19.063Z,930.81
2018-06-12T10:19:18.972Z,930.82
2018-06-12T10:20:18.982Z,930.84
2018-06-12T10:21:19.000Z,930.83
2018-06-12T10:22:19.019Z,930.84
2018-06-12T10:23:19.136Z,930.79
2018-06-12T10:24:19.044Z,930.78
2018-06-12T10:25:19.069Z,930.78
2018-06-12T10:26:19.090Z,930.74
2018-06-12T10:27:19.086Z,930.76
2018-06-12T10:28:19.238Z,930.77
2018-06-12T10:29:19.131Z,930.73
2018-06-12T10:30:19.148Z,930.69
2018-06-12T10:31:19.173Z,930.72
2018-06-12T10:32:19.159Z,930.70
2018-06-12T10:33:19.238Z,930.76
2018-06-12T10:34:19.204Z,930.74
2018-06-12T10:35:19.327Z,930.73
2018-06-12T10:36:19.230Z,930.77
2018-06-12T10:37:19.256Z,930.78
2018-06-12T10:38:19.290Z,930.82
2018-06-12T10:39:19.287Z,930.83
2018-06-12T10:40:19.351Z,930.84
2018-06-12T10:41:19.313Z,930.86
2018-06-12T10:42:19.341Z,930.89
2018-06-12T10:43:19.443Z,930.89
2018-06-12T10:44:19.494Z,930.89
2018-06-12T10:45:19.398Z,930.90
2018-06-12T10:46:19.394Z,930.92
2018-06-12T10:47:19.426Z,930.93
2018-06-12T10:48:19.483Z,930.95
2018-06-12T10:49:19.466Z,930.90
2018-06-12T10:50:19.581Z,930.96
2018-06-12T10:51:19.509Z,930.97
2018-06-12T10:52:19.521Z,931.00
2018-06-12T10:53:19.528Z,931.00
2018-06-12T10:54:19.539Z,930.98
2018-06-12T10:55:19.697Z,931.07
2018-06-12T10:56:19.582Z,931.03
2018-06-12T10:57:19.614Z,931.07
2018-06-12T10:58:19.626Z,931.10
2018-06-12T10:59:19.626Z,931.10
2018-06-12T11:00:19.703Z,931.10
2018-06-12T11:01:19.667Z,931.11
2018-06-12T11:02:19.777Z,931.16
2018-06-12T11:03:19.708Z,931.17
2018-06-12T11:04:19.720Z,931.21
2018-06-12T11:05:19.737Z,931.21
2018-06-12T11:06:19.752Z,931.19
2018-06-12T11:07:19.788Z,931.21
2018-06-12T11:08:19.910Z,931.21
2018-06-12T11:09:19.821Z,931.20
2018-06-12T11:10:19.852Z,931.20
2018-06-12T11:11:19.883Z,931.18
2018-06-12T11:12:19.867Z,931.20
2018-06-12T11:13:20.001Z,931.18
2018-06-12T11:14:19.912Z,931.15
2018-06-12T11:15:19.932Z,931.12
2018-06-12T11:16:19.948Z,931.14
2018-06-12T11:17:19.990Z,931.14
2018-06-12T11:18:20.081Z,931.11
2018-06-12T11:19:20.010Z,931.07
2018-06-12T11:20:20.019Z,931.06
2018-06-12T11:21:20.054Z,931.07
2018-06-12T11:22:20.059Z,931.08
2018-06-12T11:23:20.172Z,931.06
2018-06-12T11:24:20.108Z,931.10
2018-06-12T11:25:20.110Z,931.08
2018-06-12T11:26:20.147Z,931.08
2018-06-12T11:27:20.206Z,931.07
2018-06-12T11:28:23.896Z,931.11
2018-06-12T11:29:20.212Z,931.13
2018-06-12T11:30:20.226Z,931.09
2018-06-12T11:31:20.247Z,931.14
2018-06-12T11:32:20.253Z,931.16
2018-06-12T11:33:20.373Z,931.18
2018-06-12T11:34:20.282Z,931.20
2018-06-12T11:35:20.309Z,931.20
2018-06-12T11:36:20.333Z,931.26
2018-06-12T11:38:20.472Z,931.24
2018-06-12T11:39:20.389Z,931.27
2018-06-12T11:40:20.408Z,931.26
2018-06-12T11:41:20.418Z,931.29
2018-06-12T11:42:20.466Z,931.28
2018-06-12T11:43:20.573Z,931.27
2018-06-12T11:44:20.505Z,931.30
2018-06-12T11:45:20.520Z,931.30
2018-06-12T11:46:20.534Z,931.32
2018-06-12T11:47:20.556Z,931.32
2018-06-12T11:48:20.681Z,931.33
2018-06-12T11:49:20.601Z,931.29
2018-06-12T11:50:20.613Z,931.22
2018-06-12T11:51:20.632Z,931.26
2018-06-12T11:52:20.654Z,931.28
2018-06-12T11:53:20.776Z,931.27
2018-06-12T11:54:20.709Z,931.30
2018-06-12T11:55:20.725Z,931.27
2018-06-12T11:56:20.746Z,931.24
2018-06-12T11:57:20.764Z,931.23
2018-06-12T11:58:20.875Z,931.20
2018-06-12T11:59:20.792Z,931.18
2018-06-12T12:00:20.839Z,931.16
2018-06-12T12:01:20.830Z,931.21
2018-06-12T12:02:20.857Z,931.16
2018-06-12T12:03:20.985Z,931.18
2018-06-12T12:04:20.906Z,931.21
2018-06-12T12:05:20.928Z,931.21
2018-06-12T12:06:20.955Z,931.15
2018-06-12T12:07:20.975Z,931.17
2018-06-12T12:08:21.080Z,931.15
2018-06-12T12:09:21.003Z,931.20
2018-06-12T12:10:21.037Z,931.25
2018-06-12T12:11:21.052Z,931.27
2018-06-12T12:12:21.196Z,931.36
2018-06-12T12:13:21.193Z,931.29
2018-06-12T12:14:21.117Z,931.35
2018-06-12T12:15:21.145Z,931.32
2018-06-12T12:16:21.161Z,931.36
2018-06-12T12:17:21.178Z,931.24
2018-06-12T12:18:21.313Z,931.21
2018-06-12T12:19:21.219Z,931.20
2018-06-12T12:20:21.234Z,931.22
2018-06-12T12:21:21.249Z,931.25
2018-06-12T12:22:21.284Z,931.25
2018-06-12T12:23:21.460Z,931.27
2018-06-12T12:24:21.313Z,931.25
2018-06-12T12:25:21.358Z,931.25
2018-06-12T12:26:21.358Z,931.22
2018-06-12T12:27:21.399Z,931.23
2018-06-12T12:28:21.501Z,931.23
2018-06-12T12:29:21.411Z,931.23
2018-06-12T12:30:21.443Z,931.18
2018-06-12T12:31:21.469Z,931.13
2018-06-12T12:32:21.492Z,931.15
2018-06-12T12:33:21.544Z,931.02